Time;durP1;ratioP1;P1;durP2;ratioP2;P2;SDS_P1;SDS_P2;PMS_P1;PMS_P2;Temp;Humidity;BMP_temperature;BMP_pressure;BME280_temperature;BME280_humidity;BME280_pressure;Samples;Min_cycle;Max_cycle;Signal;HPM_P1;HPM_P2
2023/01/15 00:02:16;;;;;;;7.23;4.87;;;7.20;99.90;;;;;;5072775;28;20197;-73
2023/01/15 00:04:45;;;;;;;7.90;5.43;;;7.20;99.90;;;;;;5072839;28;20217;-73
2023/01/15 00:07:14;;;;;;;9.10;6.43;;;7.30;99.90;;;;;;5072797;28;20227;-73
2023/01/15 00:09:42;;;;;;;5.37;4.83;;;7.30;99.90;;;;;;5072759;28;20219;-73
2023/01/15 00:12:11;;;;;;;9.07;5.07;;;7.40;99.90;;;;;;5071933;28;20189;-73
2023/01/15 00:14:40;;;;;;;7.23;4.70;;;7.40;99.90;;;;;;5072671;28;20216;-74
2023/01/15 00:17:08;;;;;;;6.23;5.00;;;7.40;99.90;;;;;;5072618;28;20258;-73
2023/01/15 00:19:38;;;;;;;10.77;4.90;;;7.40;99.90;;;;;;5054663;28;20738;-74
2023/01/15 00:22:07;;;;;;;15.67;6.13;;;7.40;99.90;;;;;;5072571;28;20732;-73
2023/01/15 00:27:42;;;;;;;9.10;5.47;;;7.40;99.90;;;;;;5072267;28;20264;-73
2023/01/15 00:30:13;;;;;;;7.93;5.10;;;7.50;99.90;;;;;;5072656;28;20216;-72
2023/01/15 00:32:43;;;;;;;10.90;4.97;;;7.50;99.90;;;;;;5072354;28;20190;-73
2023/01/15 00:35:15;;;;;;;7.03;4.67;;;7.50;99.90;;;;;;5072239;28;20582;-73
2023/01/15 00:37:44;;;;;;;8.63;4.87;;;7.50;99.90;;;;;;5072280;28;20193;-73
2023/01/15 00:40:15;;;;;;;8.27;5.20;;;7.50;99.90;;;;;;5053767;28;20292;-74
2023/01/15 00:42:44;;;;;;;8.73;5.03;;;7.50;99.90;;;;;;5072123;28;20189;-75
2023/01/15 00:45:15;;;;;;;5.50;4.47;;;7.50;99.90;;;;;;5072022;28;20217;-74
2023/01/15 00:47:46;;;;;;;10.33;4.70;;;7.50;99.90;;;;;;4990461;28;20681;-74
2023/01/15 00:50:18;;;;;;;7.30;5.10;;;7.60;99.90;;;;;;4990650;28;20208;-74
2023/01/15 00:52:46;;;;;;;8.77;5.07;;;7.60;99.90;;;;;;4990627;28;20279;-76
2023/01/15 00:55:15;;;;;;;7.97;5.10;;;7.60;99.90;;;;;;4990768;28;20235;-75
2023/01/15 00:57:44;;;;;;;9.10;4.53;;;7.60;99.90;;;;;;4990226;28;20239;-74
2023/01/15 01:00:13;;;;;;;10.33;4.93;;;7.70;99.90;;;;;;4974242;28;20756;-75
2023/01/15 01:02:42;;;;;;;8.77;5.00;;;7.70;99.90;;;;;;4990496;28;20621;-75
2023/01/15 01:05:11;;;;;;;5.53;4.77;;;7.70;99.90;;;;;;5005126;28;20292;-75
2023/01/15 01:07:41;;;;;;;8.70;4.37;;;7.70;99.90;;;;;;5072069;28;20189;-75
2023/01/15 01:10:10;;;;;;;9.80;5.20;;;7.70;99.90;;;;;;5053937;28;20209;-73
2023/01/15 01:13:08;;;;;;;8.37;5.73;;;7.70;99.90;;;;;;5071682;28;20224;-74
2023/01/15 01:15:37;;;;;;;9.40;4.83;;;7.70;99.90;;;;;;5071897;28;20201;-75
2023/01/15 01:18:06;;;;;;;6.93;4.67;;;7.70;99.90;;;;;;5054108;28;20227;-74
2023/01/15 01:20:38;;;;;;;9.83;4.67;;;7.80;99.90;;;;;;5071748;28;20194;-75
2023/01/15 01:23:08;;;;;;;8.63;4.63;;;7.80;99.90;;;;;;5095063;22;20231;-74
2023/01/15 01:26:05;;;;;;;13.03;5.43;;;7.80;99.90;;;;;;5116486;28;20211;-74
2023/01/15 01:28:36;;;;;;;9.43;5.40;;;7.90;99.90;;;;;;5116405;28;20199;-74
2023/01/15 01:31:08;;;;;;;7.00;4.53;;;7.80;99.90;;;;;;5116471;28;20278;-76
2023/01/15 01:33:37;;;;;;;8.10;5.23;;;7.80;99.90;;;;;;5116347;28;20198;-73
2023/01/15 01:36:15;;;;;;;10.93;5.40;;;7.80;99.90;;;;;;5116368;28;20219;-74
2023/01/15 01:38:49;;;;;;;7.07;5.10;;;7.80;99.90;;;;;;5116239;28;20192;-73
2023/01/15 01:41:18;;;;;;;7.30;5.20;;;7.80;99.90;;;;;;5114980;28;20552;-74
2023/01/15 01:43:56;;;;;;;11.83;5.40;;;7.80;99.90;;;;;;5116150;28;20195;-74
2023/01/15 01:46:27;;;;;;;5.63;4.93;;;7.80;99.90;;;;;;5114908;28;20230;-74
2023/01/15 01:49:00;;;;;;;6.10;4.50;;;7.80;99.90;;;;;;5116132;28;20587;-73
2023/01/15 01:51:32;;;;;;;8.53;5.37;;;7.90;99.90;;;;;;5114993;28;20196;-75
2023/01/15 01:54:03;;;;;;;10.83;5.50;;;7.80;99.90;;;;;;5114640;28;20567;-74
2023/01/15 01:56:35;;;;;;;7.33;4.77;;;7.80;99.90;;;;;;5116006;28;20188;-74
2023/01/15 01:59:05;;;;;;;8.23;5.10;;;7.80;99.90;;;;;;5115831;28;20192;-74
2023/01/15 02:01:35;;;;;;;11.50;5.83;;;7.80;99.90;;;;;;5114579;28;20562;-75
2023/01/15 02:04:06;;;;;;;8.83;5.73;;;7.90;99.90;;;;;;5115801;28;20242;-74
2023/01/15 02:06:35;;;;;;;6.27;5.13;;;7.90;99.90;;;;;;5115765;28;20589;-74
2023/01/15 02:09:06;;;;;;;8.23;5.17;;;7.90;99.90;;;;;;5115668;27;20195;-74
2023/01/15 02:11:36;;;;;;;7.67;4.93;;;7.90;99.90;;;;;;5131699;27;20778;-74
2023/01/15 02:14:09;;;;;;;6.17;4.60;;;7.90;99.90;;;;;;5114105;28;20728;-74
2023/01/15 02:16:50;;;;;;;7.70;5.80;;;7.90;99.90;;;;;;5115669;28;20245;-74
2023/01/15 02:19:30;;;;;;;10.90;5.23;;;7.90;99.90;;;;;;5115560;28;20245;-74
2023/01/15 02:22:10;;;;;;;6.60;5.30;;;7.90;99.90;;;;;;5114195;28;20196;-73
2023/01/15 02:24:55;;;;;;;6.63;5.40;;;8.00;99.90;;;;;;5115252;28;20196;-73
2023/01/15 02:27:27;;;;;;;10.80;5.50;;;8.00;99.90;;;;;;5111970;28;20259;-74
2023/01/15 02:30:01;;;;;;;13.30;6.30;;;8.00;99.90;;;;;;5114036;28;20208;-74
2023/01/15 02:32:42;;;;;;;7.50;4.43;;;8.10;99.90;;;;;;5113946;28;20207;-74
2023/01/15 02:35:17;;;;;;;7.67;5.03;;;8.10;99.90;;;;;;5113386;28;20207;-74
2023/01/15 02:37:50;;;;;;;5.13;4.10;;;8.00;99.90;;;;;;5131002;27;20583;-74
2023/01/15 02:40:23;;;;;;;6.87;5.17;;;8.00;99.90;;;;;;5113810;28;20291;-74
2023/01/15 02:42:56;;;;;;;7.77;4.00;;;8.10;99.90;;;;;;5130721;27;20203;-74
2023/01/15 02:45:31;;;;;;;5.13;4.50;;;8.10;99.90;;;;;;5113768;28;20707;-74
2023/01/15 02:48:11;;;;;;;5.50;4.57;;;8.10;99.90;;;;;;5113979;28;20223;-74
2023/01/15 02:50:42;;;;;;;7.40;4.40;;;8.00;99.90;;;;;;5113762;28;20207;-74
2023/01/15 02:53:18;;;;;;;7.57;5.00;;;8.10;99.90;;;;;;5114838;28;20597;-75
2023/01/15 02:55:52;;;;;;;7.70;4.80;;;8.10;99.90;;;;;;5113590;28;20199;-74
2023/01/15 02:58:33;;;;;;;5.80;3.83;;;8.10;99.90;;;;;;5130583;27;20203;-74
2023/01/15 03:01:10;;;;;;;6.13;4.20;;;8.00;99.90;;;;;;5113387;28;20207;-76
2023/01/15 03:03:46;;;;;;;5.83;4.57;;;8.00;99.90;;;;;;5114870;28;20673;-74
2023/01/15 03:06:21;;;;;;;5.80;4.10;;;8.00;99.90;;;;;;5114660;28;20195;-77
2023/01/15 03:08:50;;;;;;;6.80;4.07;;;7.90;99.90;;;;;;5113262;28;20252;-75
2023/01/15 03:11:20;;;;;;;6.50;4.37;;;7.90;99.90;;;;;;5114632;28;20188;-75
2023/01/15 03:14:04;;;;;;;6.67;4.13;;;7.90;99.90;;;;;;5113217;28;20291;-75
2023/01/15 03:16:34;;;;;;;7.00;4.03;;;7.90;99.90;;;;;;5113217;28;20260;-77
2023/01/15 03:19:21;;;;;;;6.93;4.87;;;7.90;99.90;;;;;;5113186;28;20239;-75
2023/01/15 03:22:00;;;;;;;10.30;4.77;;;7.90;99.90;;;;;;5112999;28;20199;-75
2023/01/15 03:24:37;;;;;;;5.17;3.77;;;7.90;99.90;;;;;;5112794;28;20231;-75
2023/01/15 03:27:07;;;;;;;5.87;3.97;;;7.90;99.90;;;;;;5112946;28;20234;-75
2023/01/15 03:29:41;;;;;;;4.57;4.17;;;7.90;99.90;;;;;;5112613;28;20226;-75
2023/01/15 03:32:11;;;;;;;3.70;3.40;;;7.90;99.90;;;;;;5104580;22;20244;-75
2023/01/15 03:34:49;;;;;;;3.87;3.43;;;7.90;99.90;;;;;;5089056;28;20215;-75
2023/01/15 03:37:22;;;;;;;5.43;3.80;;;8.00;99.90;;;;;;5072261;28;20208;-75
2023/01/15 03:39:52;;;;;;;4.63;4.20;;;7.90;99.90;;;;;;5072233;28;20270;-75
2023/01/15 03:42:35;;;;;;;6.70;3.93;;;7.90;99.90;;;;;;5073230;28;20553;-74
2023/01/15 03:45:15;;;;;;;6.23;4.27;;;7.90;99.90;;;;;;5071520;28;20202;-75
2023/01/15 03:47:54;;;;;;;8.37;4.10;;;7.80;99.90;;;;;;5071504;28;20271;-75
2023/01/15 03:50:32;;;;;;;7.37;3.63;;;7.70;99.90;;;;;;5073261;28;20549;-74
2023/01/15 03:53:11;;;;;;;4.90;3.90;;;7.60;99.90;;;;;;5071887;28;20204;-75
2023/01/15 03:55:53;;;;;;;4.70;4.17;;;7.50;99.90;;;;;;5071784;28;20193;-75
2023/01/15 03:58:29;;;;;;;5.43;4.07;;;7.50;99.90;;;;;;5072943;28;20728;-74
2023/01/15 04:01:03;;;;;;;4.53;3.70;;;7.50;99.90;;;;;;5072967;28;20280;-75
2023/01/15 04:03:37;;;;;;;6.47;4.00;;;7.50;99.90;;;;;;5071720;28;20557;-74
2023/01/15 04:06:07;;;;;;;3.20;2.90;;;7.50;99.90;;;;;;5071661;28;20196;-74
2023/01/15 04:08:40;;;;;;;4.50;4.10;;;7.60;99.90;;;;;;5071568;28;20230;-74
2023/01/15 04:11:13;;;;;;;5.90;4.07;;;7.50;99.90;;;;;;5071687;28;20201;-75
2023/01/15 04:13:47;;;;;;;6.27;3.90;;;7.50;99.90;;;;;;5071440;28;20729;-76
2023/01/15 04:16:40;;;;;;;4.97;3.57;;;7.50;99.90;;;;;;5072321;28;20569;-75
2023/01/15 04:19:09;;;;;;;5.07;3.57;;;7.50;99.90;;;;;;5071273;28;20586;-74
2023/01/15 04:21:44;;;;;;;3.47;3.23;;;7.60;99.90;;;;;;5071314;28;20250;-73
2023/01/15 04:24:12;;;;;;;3.63;3.20;;;7.70;99.90;;;;;;5072597;28;20201;-72
2023/01/15 04:26:41;;;;;;;3.40;3.20;;;7.70;99.90;;;;;;5071155;28;20225;-74
2023/01/15 04:29:10;;;;;;;2.90;2.70;;;7.80;99.90;;;;;;5072444;28;20750;-75
2023/01/15 04:31:40;;;;;;;3.30;3.00;;;7.80;99.90;;;;;;5072143;28;20299;-75
2023/01/15 04:34:09;;;;;;;3.07;2.87;;;7.80;99.90;;;;;;5072462;28;20201;-74
2023/01/15 04:36:38;;;;;;;4.97;4.43;;;7.80;99.90;;;;;;5072438;28;20682;-75
2023/01/15 04:39:06;;;;;;;4.53;3.23;;;7.80;99.90;;;;;;5072391;28;20205;-75
2023/01/15 04:44:25;;;;;;;3.10;2.90;;;7.70;99.90;;;;;;5072287;28;20228;-74
2023/01/15 04:46:58;;;;;;;4.07;3.07;;;7.60;99.90;;;;;;5072219;28;20219;-74
2023/01/15 04:49:27;;;;;;;3.13;2.80;;;7.60;99.90;;;;;;5072276;28;20663;-75
2023/01/15 04:51:56;;;;;;;3.33;3.13;;;7.70;99.90;;;;;;5072211;28;20197;-75
2023/01/15 04:54:25;;;;;;;3.17;2.90;;;7.80;99.90;;;;;;5072208;28;20197;-74
2023/01/15 04:56:54;;;;;;;3.10;2.90;;;7.80;99.90;;;;;;5072456;28;20201;-74
2023/01/15 04:59:26;;;;;;;3.30;3.00;;;8.00;99.90;;;;;;5072058;28;20195;-74
2023/01/15 05:01:56;;;;;;;4.37;3.40;;;8.00;99.90;;;;;;5071820;28;20262;-74
2023/01/15 05:04:34;;;;;;;3.47;3.17;;;8.00;99.90;;;;;;5072107;28;20665;-74
2023/01/15 05:07:04;;;;;;;3.83;3.37;;;8.00;99.90;;;;;;5072027;28;20193;-74
2023/01/15 05:09:33;;;;;;;4.03;3.30;;;8.10;99.90;;;;;;5072107;28;20243;-75
2023/01/15 05:12:02;;;;;;;3.17;2.90;;;8.10;99.90;;;;;;5072062;28;20259;-75
2023/01/15 05:14:31;;;;;;;3.10;2.43;;;8.20;99.90;;;;;;5072020;28;20193;-75
2023/01/15 05:17:05;;;;;;;2.90;2.70;;;8.20;99.90;;;;;;5071946;28;20210;-75
2023/01/15 05:19:42;;;;;;;3.10;2.80;;;8.30;99.90;;;;;;5071987;28;20543;-76
2023/01/15 05:22:17;;;;;;;2.90;2.70;;;8.20;99.90;;;;;;5071699;28;20197;-76
2023/01/15 05:24:52;;;;;;;2.93;2.73;;;8.10;99.90;;;;;;5050253;28;20635;-76
2023/01/15 05:27:21;;;;;;;2.63;2.40;;;8.10;99.90;;;;;;5051801;28;20189;-76
2023/01/15 05:29:49;;;;;;;3.00;2.80;;;8.20;99.90;;;;;;5051740;28;20659;-77
2023/01/15 05:32:19;;;;;;;4.43;3.40;;;8.20;99.90;;;;;;5051846;28;20734;-76
2023/01/15 05:34:48;;;;;;;5.17;3.67;;;8.20;99.90;;;;;;5051719;28;20224;-76
2023/01/15 05:37:17;;;;;;;3.60;3.30;;;8.20;99.90;;;;;;5051830;28;20248;-76
2023/01/15 05:39:46;;;;;;;3.00;2.80;;;8.20;99.90;;;;;;5050414;28;20285;-76
2023/01/15 05:42:14;;;;;;;3.10;2.80;;;8.10;99.90;;;;;;5051776;28;20198;-76
2023/01/15 05:44:43;;;;;;;3.00;2.80;;;8.10;99.90;;;;;;5049349;28;20186;-76
2023/01/15 05:47:13;;;;;;;2.90;2.80;;;8.00;99.90;;;;;;5037154;28;20586;-75
2023/01/15 05:49:43;;;;;;;3.60;3.30;;;8.00;99.90;;;;;;5031651;28;20285;-75
2023/01/15 05:52:12;;;;;;;3.30;3.10;;;8.00;99.90;;;;;;5031665;28;20257;-75
2023/01/15 05:54:40;;;;;;;3.47;3.17;;;8.00;99.90;;;;;;5031858;28;20191;-74
2023/01/15 05:57:11;;;;;;;3.37;3.17;;;8.00;99.90;;;;;;5031765;28;20558;-74
2023/01/15 05:59:41;;;;;;;4.27;3.00;;;8.10;99.90;;;;;;5031532;28;20205;-73
2023/01/15 06:02:10;;;;;;;7.27;4.20;;;8.10;99.90;;;;;;5031634;28;20543;-74
2023/01/15 06:04:38;;;;;;;5.37;4.00;;;8.10;99.90;;;;;;5031606;28;20696;-74
2023/01/15 06:07:08;;;;;;;3.70;3.40;;;8.00;99.90;;;;;;5031553;28;20186;-74
2023/01/15 06:09:37;;;;;;;3.80;3.50;;;8.00;99.90;;;;;;5032996;28;20226;-74
2023/01/15 06:12:06;;;;;;;4.47;4.07;;;8.00;99.90;;;;;;5035115;28;20679;-75
2023/01/15 06:14:35;;;;;;;6.13;3.47;;;8.00;99.90;;;;;;5034998;28;20683;-74
2023/01/15 06:17:03;;;;;;;4.60;4.10;;;8.10;99.90;;;;;;5014133;22;20359;-74
2023/01/15 06:19:32;;;;;;;3.37;3.17;;;8.10;99.90;;;;;;4991536;28;20661;-74
2023/01/15 06:22:02;;;;;;;3.40;3.20;;;8.10;99.90;;;;;;4992419;28;20245;-74
2023/01/15 06:24:32;;;;;;;3.60;3.40;;;8.00;99.90;;;;;;4992286;28;20555;-74
2023/01/15 06:27:01;;;;;;;3.70;3.10;;;8.00;99.90;;;;;;4991680;28;20204;-74
2023/01/15 06:29:30;;;;;;;3.20;3.00;;;8.10;99.90;;;;;;4992043;28;20323;-74
2023/01/15 06:31:59;;;;;;;4.43;4.03;;;8.10;99.90;;;;;;4992291;28;20245;-74
2023/01/15 06:34:27;;;;;;;6.47;3.97;;;8.10;99.90;;;;;;4992274;28;20204;-74
2023/01/15 06:36:56;;;;;;;4.67;4.17;;;8.00;99.90;;;;;;4992180;28;20200;-74
2023/01/15 06:39:25;;;;;;;5.20;3.60;;;7.90;99.90;;;;;;4992196;28;20230;-74
2023/01/15 06:47:28;;;;;;;3.67;3.47;;;8.10;99.90;;;;;;5066842;28;20616;-75
2023/01/15 06:49:58;;;;;;;3.40;3.20;;;8.00;99.90;;;;;;5074517;28;20303;-75
2023/01/15 06:52:28;;;;;;;3.43;3.13;;;8.10;99.90;;;;;;5074529;28;20663;-73
2023/01/15 06:54:57;;;;;;;3.10;2.90;;;8.10;99.90;;;;;;5074473;28;20197;-73
2023/01/15 06:57:27;;;;;;;2.80;2.60;;;8.10;99.90;;;;;;5074320;28;20194;-73
2023/01/15 06:59:56;;;;;;;2.33;2.13;;;7.80;99.90;;;;;;5074172;28;20193;-76
2023/01/15 07:02:25;;;;;;;2.33;2.20;;;7.50;99.90;;;;;;4992878;28;20258;-74
2023/01/15 07:04:53;;;;;;;2.50;2.27;;;7.40;99.90;;;;;;4991774;28;20203;-74
2023/01/15 07:07:22;;;;;;;2.53;2.33;;;7.50;99.90;;;;;;4991737;28;20203;-74
2023/01/15 07:09:51;;;;;;;3.03;2.33;;;7.50;99.90;;;;;;4991707;28;20683;-74
2023/01/15 07:12:20;;;;;;;2.70;2.40;;;7.60;99.90;;;;;;4991624;28;20194;-74
2023/01/15 07:14:50;;;;;;;2.50;2.30;;;7.60;99.90;;;;;;4991367;28;20216;-75
2023/01/15 07:17:19;;;;;;;4.13;2.60;;;7.50;99.90;;;;;;4991047;28;20286;-74
2023/01/15 07:19:48;;;;;;;3.37;2.80;;;7.50;99.90;;;;;;4990645;28;20242;-74
2023/01/15 07:22:17;;;;;;;3.07;2.77;;;7.50;99.90;;;;;;4990502;28;20200;-74
2023/01/15 07:24:45;;;;;;;2.77;2.60;;;7.50;99.90;;;;;;4990491;28;20574;-74
2023/01/15 07:27:14;;;;;;;3.80;2.90;;;7.50;99.90;;;;;;4990584;28;20200;-74
2023/01/15 07:29:43;;;;;;;2.47;2.37;;;7.50;99.90;;;;;;4986016;28;20785;-73
2023/01/15 07:32:33;;;;;;;3.70;3.30;;;7.40;99.90;;;;;;4978191;28;20211;-75
2023/01/15 07:35:02;;;;;;;5.27;3.17;;;7.40;99.90;;;;;;4989611;28;20234;-74
2023/01/15 07:37:31;;;;;;;4.67;3.10;;;7.30;99.90;;;;;;4990447;28;20661;-74
2023/01/15 07:39:59;;;;;;;3.60;3.20;;;7.30;99.90;;;;;;4990449;28;20202;-75
2023/01/15 07:50:55;;;;;;;3.40;3.10;;;6.90;99.90;;;;;;4971774;28;20232;-78
2023/01/15 07:53:23;;;;;;;4.40;2.60;;;7.00;99.90;;;;;;4970421;28;20204;-77
2023/01/15 07:55:55;;;;;;;3.33;2.40;;;7.00;99.90;;;;;;4971517;28;20189;-77
2023/01/15 07:58:24;;;;;;;2.67;2.37;;;7.00;99.90;;;;;;4970915;28;20196;-76
2023/01/15 08:00:53;;;;;;;3.47;2.53;;;6.90;99.90;;;;;;4971423;28;20738;-77
2023/01/15 08:03:23;;;;;;;2.57;2.27;;;6.90;99.90;;;;;;4971314;28;20265;-76
2023/01/15 08:05:59;;;;;;;2.57;2.37;;;6.90;99.90;;;;;;4971335;28;20247;-74
2023/01/15 08:08:28;;;;;;;2.23;2.10;;;6.90;99.90;;;;;;4971464;28;20246;-77
2023/01/15 08:16:36;;;;;;;4.57;2.17;;;7.00;99.90;;;;;;4989671;28;20232;-79
2023/01/15 08:19:07;;;;;;;2.83;2.63;;;7.00;99.90;;;;;;4990609;28;20196;-76
2023/01/15 08:21:55;;;;;;;3.50;3.20;;;7.00;99.90;;;;;;4986277;28;20196;-78
2023/01/15 08:24:24;;;;;;;5.80;2.60;;;7.00;99.90;;;;;;4990491;28;20214;-76
2023/01/15 08:26:53;;;;;;;3.93;3.07;;;7.00;99.90;;;;;;4990166;28;20275;-76
2023/01/15 08:29:29;;;;;;;2.60;2.40;;;6.90;99.90;;;;;;4990424;28;20244;-74
2023/01/15 08:31:58;;;;;;;4.07;2.40;;;7.00;99.90;;;;;;4989848;28;20202;-75
2023/01/15 08:34:32;;;;;;;2.97;2.20;;;7.00;99.90;;;;;;4990126;28;20200;-76
2023/01/15 08:37:00;;;;;;;2.90;2.43;;;7.00;99.90;;;;;;4990421;28;20527;-77
2023/01/15 08:39:29;;;;;;;3.47;2.70;;;7.00;99.90;;;;;;4990487;28;20280;-77
2023/01/15 08:41:58;;;;;;;2.93;2.70;;;6.90;99.90;;;;;;4988470;28;20227;-76
2023/01/15 08:44:27;;;;;;;11.83;6.20;;;6.90;99.90;;;;;;4990654;28;20196;-76
2023/01/15 08:46:56;;;;;;;5.20;3.57;;;6.90;99.90;;;;;;4989607;28;20254;-78
2023/01/15 08:49:25;;;;;;;3.20;2.90;;;6.90;99.90;;;;;;4990108;28;20220;-77
2023/01/15 08:51:55;;;;;;;2.93;2.67;;;6.80;99.90;;;;;;4990171;28;20222;-76
2023/01/15 08:54:24;;;;;;;4.33;3.03;;;6.80;99.90;;;;;;4989903;28;20241;-75
2023/01/15 08:56:53;;;;;;;5.00;2.90;;;6.90;99.90;;;;;;4990145;28;20274;-76
2023/01/15 08:59:22;;;;;;;6.30;3.63;;;6.90;99.90;;;;;;4983490;28;20199;-76
2023/01/15 09:01:50;;;;;;;5.23;3.03;;;6.90;99.90;;;;;;4974348;28;20287;-76
2023/01/15 09:04:28;;;;;;;4.53;3.20;;;7.10;99.90;;;;;;4970182;28;20283;-75
2023/01/15 09:06:58;;;;;;;4.73;3.57;;;7.00;99.90;;;;;;4985456;28;20654;-74
2023/01/15 09:09:27;;;;;;;5.13;3.90;;;7.00;99.90;;;;;;4970480;28;20220;-74
2023/01/15 09:11:56;;;;;;;8.30;5.03;;;7.10;99.90;;;;;;4968812;28;20569;-76
2023/01/15 09:14:25;;;;;;;3.80;3.13;;;7.20;99.90;;;;;;4977500;28;20685;-75
2023/01/15 09:17:13;;;;;;;7.70;3.73;;;7.20;99.90;;;;;;4986978;28;20316;-75
2023/01/15 09:19:49;;;;;;;4.80;3.10;;;7.20;99.90;;;;;;4979008;28;20250;-75
2023/01/15 09:22:20;;;;;;;4.73;2.80;;;7.00;99.90;;;;;;4978900;28;20665;-75
2023/01/15 09:24:53;;;;;;;3.10;2.60;;;6.90;99.90;;;;;;4989101;28;20582;-78
2023/01/15 09:27:21;;;;;;;2.90;2.63;;;6.90;99.90;;;;;;4989478;28;20195;-76
2023/01/15 09:29:51;;;;;;;6.07;2.73;;;6.90;99.90;;;;;;4989416;28;20215;-75
2023/01/15 09:32:20;;;;;;;3.17;2.67;;;6.90;99.90;;;;;;4989262;28;20196;-76
2023/01/15 09:34:49;;;;;;;8.70;6.53;;;6.80;99.90;;;;;;4989492;28;20202;-76
2023/01/15 09:37:19;;;;;;;5.30;3.17;;;6.80;99.90;;;;;;4989590;28;20229;-76
2023/01/15 09:39:48;;;;;;;6.57;3.10;;;6.90;99.90;;;;;;4989191;28;20261;-78
2023/01/15 09:42:50;;;;;;;4.57;3.50;;;6.90;99.90;;;;;;4989665;28;20223;-78
2023/01/15 09:45:26;;;;;;;5.87;4.53;;;6.90;99.90;;;;;;4998358;28;20211;-77
2023/01/15 09:48:17;;;;;;;5.30;3.80;;;6.90;99.90;;;;;;4992954;28;20199;-75
2023/01/15 09:51:06;;;;;;;3.20;2.90;;;6.90;99.90;;;;;;4991730;28;20236;-78
2023/01/15 09:54:18;;;;;;;9.07;3.70;;;6.90;99.90;;;;;;4992883;28;20657;-78
2023/01/15 09:59:53;;;;;;;5.00;2.93;;;6.90;99.90;;;;;;4951650;28;20212;-77
2023/01/15 10:02:29;;;;;;;4.13;3.30;;;6.90;99.90;;;;;;4953484;28;20198;-76
2023/01/15 10:05:11;;;;;;;4.27;3.43;;;6.90;99.90;;;;;;4954226;28;20202;-78
2023/01/15 10:07:49;;;;;;;10.03;5.30;;;6.90;99.90;;;;;;4952624;29;20300;-78
2023/01/15 10:10:32;;;;;;;5.97;4.13;;;6.80;99.90;;;;;;4953571;29;20340;-77
2023/01/15 10:13:08;;;;;;;6.27;3.67;;;6.90;99.90;;;;;;4946002;28;20210;-77
2023/01/15 10:15:41;;;;;;;6.37;4.10;;;6.90;99.90;;;;;;4951995;29;20283;-79
2023/01/15 10:18:18;;;;;;;4.30;3.70;;;6.90;99.90;;;;;;4953755;28;20197;-77
2023/01/15 10:21:02;;;;;;;7.77;4.07;;;6.90;99.90;;;;;;4949928;28;20667;-77
2023/01/15 10:23:45;;;;;;;6.50;4.60;;;6.90;99.90;;;;;;4951291;28;20215;-76
2023/01/15 10:26:26;;;;;;;4.67;4.27;;;6.90;99.90;;;;;;4953671;28;20197;-76
2023/01/15 10:29:00;;;;;;;7.17;4.30;;;6.70;99.90;;;;;;4953842;28;20662;-76
2023/01/15 10:31:53;;;;;;;7.40;4.30;;;6.60;99.90;;;;;;4953647;28;20688;-77
2023/01/15 10:35:03;;;;;;;7.90;4.50;;;6.70;99.90;;;;;;4952473;28;20267;-76
2023/01/15 10:37:40;;;;;;;6.47;3.87;;;6.90;99.90;;;;;;4903094;29;20245;-76
2023/01/15 10:40:38;;;;;;;5.00;3.70;;;6.90;99.90;;;;;;4913424;28;20226;-76
2023/01/15 10:43:16;;;;;;;5.63;3.60;;;6.80;99.90;;;;;;4914595;28;20218;-76
2023/01/15 10:45:51;;;;;;;5.50;3.67;;;6.80;99.90;;;;;;4928882;29;20209;-75
2023/01/15 10:48:29;;;;;;;6.03;4.27;;;6.90;99.90;;;;;;4916317;29;20209;-76
2023/01/15 10:51:04;;;;;;;4.13;3.67;;;6.90;99.90;;;;;;4908326;28;20321;-76
2023/01/15 10:53:40;;;;;;;3.27;3.00;;;6.90;99.90;;;;;;4894198;29;20207;-78
2023/01/15 10:56:18;;;;;;;5.17;3.40;;;6.90;99.90;;;;;;4905858;29;20202;-76
2023/01/15 10:58:55;;;;;;;5.50;3.53;;;6.90;99.90;;;;;;4912651;29;20719;-76
2023/01/15 11:01:27;;;;;;;2.87;2.67;;;6.90;99.90;;;;;;4912735;29;20203;-76
2023/01/15 11:03:56;;;;;;;3.37;2.77;;;6.90;99.90;;;;;;4913041;29;20211;-77
2023/01/15 11:06:25;;;;;;;3.63;2.90;;;6.90;99.90;;;;;;4912639;29;20744;-75
2023/01/15 11:08:57;;;;;;;2.70;2.50;;;6.70;99.90;;;;;;4903003;29;20226;-75
2023/01/15 11:20:28;;;;;;;8.53;5.83;;;6.90;99.90;;;;;;4952911;28;20201;-76
2023/01/15 11:22:57;;;;;;;9.33;5.80;;;6.70;99.90;;;;;;4952952;28;20205;-76
2023/01/15 11:25:31;;;;;;;3.87;3.47;;;6.60;99.90;;;;;;4952733;28;20223;-76
2023/01/15 11:28:02;;;;;;;4.43;3.03;;;6.50;99.90;;;;;;4952876;28;20263;-77
2023/01/15 11:30:36;;;;;;;10.17;5.87;;;6.50;99.90;;;;;;4952740;28;20213;-76
2023/01/15 11:33:09;;;;;;;12.33;6.33;;;6.60;99.90;;;;;;4952734;28;20346;-77
2023/01/15 11:35:38;;;;;;;3.63;3.33;;;6.80;99.90;;;;;;4946478;28;20201;-76
2023/01/15 11:38:13;;;;;;;4.50;3.20;;;6.80;99.90;;;;;;4936806;28;20208;-77
2023/01/15 11:40:52;;;;;;;7.30;4.97;;;6.90;99.90;;;;;;4933603;29;20194;-78
2023/01/15 11:51:59;;;;;;;3.87;3.53;;;7.10;99.90;;;;;;4944547;29;20234;-80
2023/01/15 11:54:30;;;;;;;4.50;3.67;;;7.20;99.90;;;;;;4947405;29;20201;-78
2023/01/15 11:56:59;;;;;;;4.90;4.03;;;7.20;99.90;;;;;;4952419;28;20210;-79
2023/01/15 11:59:28;;;;;;;4.30;3.30;;;7.20;99.90;;;;;;4952529;28;20257;-87
2023/01/15 12:02:03;;;;;;;5.13;3.90;;;6.90;99.90;;;;;;4952506;28;20562;-79
2023/01/15 12:04:36;;;;;;;3.87;3.47;;;7.00;99.90;;;;;;4952117;28;20212;-79
2023/01/15 12:07:06;;;;;;;6.53;4.20;;;7.00;99.90;;;;;;4951064;28;20197;-78
2023/01/15 12:09:54;;;;;;;5.77;3.93;;;6.90;99.90;;;;;;4952273;28;20198;-78
2023/01/15 12:12:34;;;;;;;4.27;3.70;;;7.00;99.90;;;;;;4952271;28;20704;-78
2023/01/15 12:15:18;;;;;;;4.97;4.07;;;6.80;99.90;;;;;;4948125;28;20571;-78
2023/01/15 12:18:11;;;;;;;4.33;3.63;;;7.00;99.90;;;;;;4951520;28;20208;-79
2023/01/15 12:20:56;;;;;;;3.37;3.07;;;6.70;99.90;;;;;;4952187;28;20209;-77
2023/01/15 12:24:00;;;;;;;8.47;5.63;;;6.60;99.90;;;;;;4952153;28;20567;-78
2023/01/15 12:26:37;;;;;;;4.80;4.10;;;6.60;99.90;;;;;;4910824;29;20264;-78
2023/01/15 12:29:12;;;;;;;7.27;4.33;;;6.50;99.90;;;;;;4897121;28;20743;-78
2023/01/15 12:31:46;;;;;;;3.70;3.40;;;6.30;99.90;;;;;;4911666;29;20232;-77
2023/01/15 12:34:30;;;;;;;5.63;4.03;;;6.40;99.90;;;;;;4904567;29;20602;-80
2023/01/15 12:37:05;;;;;;;5.17;3.70;;;6.50;99.90;;;;;;4892660;29;20211;-79
2023/01/15 12:39:45;;;;;;;4.93;3.50;;;6.40;99.90;;;;;;4892732;29;20699;-79
2023/01/15 12:45:10;;;;;;;4.50;3.33;;;6.60;99.90;;;;;;4892665;29;20239;-78
2023/01/15 12:47:45;;;;;;;6.90;3.77;;;6.70;99.90;;;;;;4908686;29;20366;-77
2023/01/15 12:50:33;;;;;;;3.90;3.40;;;6.70;99.90;;;;;;4911584;29;20213;-78
2023/01/15 12:53:10;;;;;;;4.23;3.40;;;6.70;99.90;;;;;;4911503;29;20309;-81
2023/01/15 12:55:43;;;;;;;4.47;3.50;;;6.60;99.90;;;;;;4911630;29;20202;-80
2023/01/15 12:58:21;;;;;;;3.67;3.30;;;6.50;99.90;;;;;;4910680;29;20252;-78
2023/01/15 13:00:57;;;;;;;4.10;3.40;;;6.60;99.90;;;;;;4895624;29;20214;-78
2023/01/15 13:03:31;;;;;;;4.53;3.53;;;6.60;99.90;;;;;;4928405;29;20295;-77
2023/01/15 13:06:03;;;;;;;4.27;3.43;;;6.60;99.90;;;;;;4951644;29;20209;-78
2023/01/15 13:08:57;;;;;;;4.57;3.40;;;6.60;99.90;;;;;;4951684;28;20607;-80
2023/01/15 13:11:40;;;;;;;5.57;4.33;;;6.50;99.90;;;;;;4951298;29;20274;-79
2023/01/15 13:14:20;;;;;;;4.43;3.90;;;6.40;99.90;;;;;;4951437;28;20220;-78
2023/01/15 13:16:57;;;;;;;3.90;3.53;;;6.50;99.90;;;;;;4951235;28;20212;-79
2023/01/15 13:19:37;;;;;;;6.60;3.70;;;6.50;99.90;;;;;;4953613;28;20197;-78
2023/01/15 13:22:29;;;;;;;4.97;3.73;;;6.50;99.90;;;;;;4954747;28;20205;-77
2023/01/15 13:25:35;;;;;;;6.50;3.93;;;6.50;99.90;;;;;;4954290;28;20198;-76
2023/01/15 13:28:24;;;;;;;5.60;3.90;;;6.50;99.90;;;;;;4914108;29;20861;-76
2023/01/15 13:31:10;;;;;;;4.17;3.87;;;6.50;99.90;;;;;;4914194;29;20563;-77
2023/01/15 13:33:43;;;;;;;4.67;3.73;;;6.60;99.90;;;;;;4914485;29;20278;-78
2023/01/15 13:36:16;;;;;;;6.53;3.40;;;6.50;99.90;;;;;;4914494;29;20668;-78
2023/01/15 13:38:55;;;;;;;4.73;3.40;;;6.50;99.90;;;;;;4913988;28;20572;-78
2023/01/15 13:44:19;;;;;;;5.53;3.70;;;6.40;99.90;;;;;;4914421;29;20209;-79
2023/01/15 13:47:05;;;;;;;5.33;3.87;;;6.50;99.90;;;;;;4898893;29;20269;-78
2023/01/15 13:49:37;;;;;;;3.83;3.53;;;6.40;99.90;;;;;;4913911;29;20664;-78
2023/01/15 13:52:23;;;;;;;5.30;3.63;;;6.40;99.90;;;;;;4914404;29;20229;-78
2023/01/15 13:54:56;;;;;;;5.87;3.90;;;6.50;99.90;;;;;;4914361;29;20211;-79
2023/01/15 13:57:33;;;;;;;6.47;4.40;;;6.60;99.90;;;;;;4910384;29;20233;-78
2023/01/15 14:00:03;;;;;;;7.23;4.13;;;6.50;99.90;;;;;;4912663;29;20241;-78
2023/01/15 14:02:40;;;;;;;6.43;4.07;;;6.50;99.90;;;;;;4913949;29;20210;-77
2023/01/15 14:05:24;;;;;;;6.30;3.37;;;6.50;99.90;;;;;;4936339;29;20224;-78
2023/01/15 14:07:54;;;;;;;6.47;4.20;;;6.50;99.90;;;;;;4954134;28;20287;-77
2023/01/15 14:10:37;;;;;;;5.03;3.70;;;6.50;99.90;;;;;;4953892;28;20553;-77
2023/01/15 14:13:22;;;;;;;4.97;4.00;;;6.40;99.90;;;;;;4954330;28;20229;-77
2023/01/15 14:15:58;;;;;;;4.73;4.03;;;6.40;99.90;;;;;;4954253;28;20197;-77
2023/01/15 14:18:41;;;;;;;5.90;4.07;;;6.30;99.90;;;;;;4954353;28;20674;-77
2023/01/15 14:21:29;;;;;;;6.07;4.00;;;6.40;99.90;;;;;;4953958;29;20182;-78
2023/01/15 14:24:34;;;;;;;7.80;3.97;;;6.40;99.90;;;;;;4953886;28;20605;-77